createdAt,value
2018-08-06T00:03:01.818Z,0.60
2018-08-06T00:06:04.779Z,0.60
2018-08-06T00:09:07.091Z,0.67
2018-08-06T00:12:09.524Z,0.47
2018-08-06T00:15:13.124Z,0.53
2018-08-06T00:18:15.467Z,0.70
2018-08-06T00:21:17.776Z,0.50
2018-08-06T00:24:20.142Z,0.47
2018-08-06T00:27:22.585Z,0.57
2018-08-06T00:30:25.104Z,0.70
2018-08-06T00:33:27.415Z,0.40
2018-08-06T00:36:29.665Z,0.60
2018-08-06T00:39:32.762Z,0.50
2018-08-06T00:42:35.573Z,0.50
2018-08-06T00:45:38.124Z,0.40
2018-08-06T00:48:40.362Z,0.47
2018-08-06T00:51:42.654Z,0.50
2018-08-06T00:54:44.949Z,0.50
2018-08-06T00:57:47.251Z,0.40
2018-08-06T01:00:49.529Z,0.43
2018-08-06T01:03:51.968Z,0.50
2018-08-06T01:06:54.310Z,0.60
2018-08-06T01:09:56.658Z,0.60
2018-08-06T01:12:59.059Z,0.60
2018-08-06T01:16:01.369Z,0.60
2018-08-06T01:19:03.889Z,0.60
2018-08-06T01:22:06.309Z,0.70
2018-08-06T01:25:08.824Z,0.50
2018-08-06T01:28:11.112Z,0.60
2018-08-06T01:31:13.459Z,0.60
2018-08-06T01:34:15.727Z,0.40
2018-08-06T01:37:17.989Z,0.70
2018-08-06T01:40:20.293Z,0.53
2018-08-06T01:43:22.633Z,0.80
2018-08-06T01:46:24.907Z,0.50
2018-08-06T01:49:27.169Z,0.60
2018-08-06T01:52:29.495Z,0.50
2018-08-06T01:55:31.727Z,0.50
2018-08-06T01:58:33.968Z,0.70
2018-08-06T02:01:36.291Z,0.60
2018-08-06T02:04:38.555Z,0.67
2018-08-06T02:07:41.144Z,0.70
2018-08-06T02:10:43.444Z,0.60
2018-08-06T02:13:45.812Z,0.80
2018-08-06T02:16:48.111Z,0.60
2018-08-06T02:19:50.387Z,0.70
2018-08-06T02:22:52.760Z,0.70
2018-08-06T02:25:55.077Z,0.70
2018-08-06T02:28:57.330Z,0.70
2018-08-06T02:31:59.522Z,0.60
2018-08-06T02:35:01.856Z,0.50
2018-08-06T02:38:04.229Z,0.80
2018-08-06T02:41:06.549Z,0.80
2018-08-06T02:44:08.841Z,0.50
2018-08-06T02:47:11.164Z,0.60
2018-08-06T02:50:13.429Z,0.70
2018-08-06T02:53:15.716Z,0.60
2018-08-06T02:56:17.985Z,0.70
2018-08-06T02:59:20.302Z,0.93
2018-08-06T03:02:22.546Z,0.70
2018-08-06T03:05:24.806Z,0.90
2018-08-06T03:08:27.132Z,1.17
2018-08-06T03:11:29.328Z,0.60
2018-08-06T03:14:31.600Z,0.97
2018-08-06T03:17:33.872Z,0.90
2018-08-06T03:20:36.201Z,0.73
2018-08-06T03:23:38.412Z,0.70
2018-08-06T03:26:40.702Z,0.70
2018-08-06T03:29:43.004Z,0.77
2018-08-06T03:32:46.504Z,0.70
2018-08-06T03:35:48.767Z,0.70
2018-08-06T03:38:51.035Z,0.70
2018-08-06T03:41:53.240Z,1.00
2018-08-06T03:44:55.613Z,1.00
2018-08-06T03:47:57.932Z,0.60
2018-08-06T03:51:01.204Z,0.87
2018-08-06T03:54:03.553Z,0.70
2018-08-06T03:57:06.773Z,0.73
2018-08-06T04:00:15.857Z,0.80
2018-08-06T04:03:18.120Z,0.67
2018-08-06T04:06:20.426Z,0.87
2018-08-06T04:09:22.765Z,0.83
2018-08-06T04:12:25.097Z,0.97
2018-08-06T04:15:27.424Z,0.80
2018-08-06T04:18:29.651Z,0.93
2018-08-06T04:21:31.926Z,0.80
2018-08-06T04:24:34.156Z,0.80
2018-08-06T04:27:36.824Z,0.80
2018-08-06T04:30:39.082Z,0.67
2018-08-06T04:33:41.331Z,0.80
2018-08-06T04:36:43.760Z,0.60
2018-08-06T04:39:46.082Z,0.70
2018-08-06T04:42:48.402Z,0.63
2018-08-06T04:45:50.756Z,1.20
2018-08-06T04:48:53.056Z,0.63
2018-08-06T04:51:55.335Z,0.60
2018-08-06T04:54:57.664Z,0.57
2018-08-06T04:57:59.917Z,0.70
2018-08-06T05:01:02.212Z,0.60
2018-08-06T05:04:04.850Z,0.57
2018-08-06T05:07:07.279Z,0.70
2018-08-06T05:10:09.537Z,0.60
2018-08-06T05:13:12.028Z,0.70
2018-08-06T05:16:14.293Z,0.70
2018-08-06T05:19:16.541Z,0.67
2018-08-06T05:22:18.868Z,0.60
2018-08-06T05:25:21.196Z,0.90
2018-08-06T05:28:23.529Z,0.60
2018-08-06T05:31:26.863Z,0.73
2018-08-06T05:34:29.168Z,0.73
2018-08-06T05:37:32.415Z,0.93
2018-08-06T05:40:34.768Z,1.00
2018-08-06T05:43:37.607Z,0.60
2018-08-06T05:46:39.829Z,0.70
2018-08-06T05:49:42.129Z,0.70
2018-08-06T05:52:44.388Z,0.60
2018-08-06T05:55:46.672Z,0.90
2018-08-06T05:58:48.881Z,0.80
2018-08-06T06:01:51.215Z,0.70
2018-08-06T06:04:54.541Z,0.83
2018-08-06T06:07:57.037Z,0.73
2018-08-06T06:10:59.274Z,0.80
2018-08-06T06:14:01.585Z,0.80
2018-08-06T06:17:03.908Z,0.90
2018-08-06T06:20:06.917Z,0.80
2018-08-06T06:23:09.201Z,0.93
2018-08-06T06:26:11.489Z,1.10
2018-08-06T06:29:13.865Z,0.80
2018-08-06T06:32:16.220Z,1.10
2018-08-06T06:35:18.526Z,0.80
2018-08-06T06:38:20.840Z,1.30
2018-08-06T06:41:24.191Z,5.17
2018-08-06T06:44:26.548Z,1.00
2018-08-06T06:47:28.839Z,0.93
2018-08-06T06:50:31.165Z,0.80
2018-08-06T06:53:33.421Z,0.87
2018-08-06T06:56:35.733Z,0.97
2018-08-06T06:59:37.906Z,1.00
2018-08-06T07:02:41.084Z,1.03
2018-08-06T07:05:43.330Z,1.07
2018-08-06T07:08:45.632Z,0.90
2018-08-06T07:11:47.871Z,0.93
2018-08-06T07:14:50.205Z,0.97
2018-08-06T07:17:52.576Z,0.97
2018-08-06T07:20:54.819Z,0.77
2018-08-06T07:23:58.130Z,0.80
2018-08-06T07:27:00.334Z,0.80
2018-08-06T07:30:02.782Z,0.90
2018-08-06T07:33:05.012Z,1.00
2018-08-06T07:36:07.222Z,0.80
2018-08-06T07:39:10.698Z,1.00
2018-08-06T07:42:12.914Z,0.73
2018-08-06T07:45:17.317Z,0.80
2018-08-06T07:48:19.656Z,0.90
2018-08-06T07:51:22.029Z,0.80
2018-08-06T07:54:24.309Z,1.10
2018-08-06T07:57:26.542Z,1.00
2018-08-06T08:00:28.805Z,1.00
2018-08-06T08:03:31.023Z,0.90
2018-08-06T08:06:33.305Z,0.97
2018-08-06T08:09:35.675Z,1.07
2018-08-06T08:12:37.996Z,0.90
2018-08-06T08:15:40.364Z,0.83
2018-08-06T08:18:42.640Z,0.90
2018-08-06T08:21:45.014Z,1.00
2018-08-06T08:24:47.350Z,0.90
2018-08-06T08:27:49.668Z,1.07
2018-08-06T08:30:52.017Z,1.00
2018-08-06T08:33:54.386Z,0.97
2018-08-06T08:36:56.605Z,1.20
2018-08-06T08:39:58.901Z,1.00
2018-08-06T08:43:01.168Z,0.93
2018-08-06T08:46:03.472Z,0.90
2018-08-06T08:49:05.851Z,1.10
2018-08-06T08:52:08.236Z,1.03
2018-08-06T08:55:12.000Z,0.97
2018-08-06T08:58:14.262Z,1.10
2018-08-06T09:01:16.564Z,1.10
2018-08-06T09:04:18.791Z,1.30
2018-08-06T09:07:21.136Z,1.30
2018-08-06T09:10:23.514Z,1.27
2018-08-06T09:13:25.806Z,1.20
2018-08-06T09:16:28.105Z,1.17
2018-08-06T09:19:30.374Z,1.00
2018-08-06T09:22:32.696Z,1.10
2018-08-06T09:25:37.458Z,1.70
2018-08-06T09:28:39.813Z,1.10
2018-08-06T09:31:42.099Z,1.33
2018-08-06T09:34:44.423Z,1.13
2018-08-06T09:37:46.865Z,1.20
2018-08-06T09:40:49.130Z,1.20
2018-08-06T09:43:51.438Z,0.90
2018-08-06T09:46:53.733Z,1.10
2018-08-06T09:49:55.977Z,0.97
2018-08-06T09:52:59.291Z,1.03
2018-08-06T09:56:01.553Z,0.70
2018-08-06T09:59:04.235Z,0.83
2018-08-06T10:02:06.654Z,0.93
2018-08-06T10:05:08.975Z,0.70
2018-08-06T10:08:11.314Z,0.90
2018-08-06T10:11:13.576Z,0.93
2018-08-06T10:14:15.911Z,0.87
2018-08-06T10:17:18.139Z,0.80
2018-08-06T10:20:22.103Z,0.93
2018-08-06T10:23:24.423Z,1.10
2018-08-06T10:26:26.817Z,0.90
2018-08-06T10:29:29.759Z,1.00
2018-08-06T10:32:32.069Z,1.13
2018-08-06T10:35:34.368Z,1.00
2018-08-06T10:38:36.692Z,0.77
2018-08-06T10:41:39.436Z,1.00
2018-08-06T10:44:41.721Z,0.90
2018-08-06T10:47:44.077Z,1.10
2018-08-06T10:50:46.325Z,0.90
2018-08-06T10:53:48.584Z,0.80
2018-08-06T10:56:50.914Z,0.90
2018-08-06T10:59:53.211Z,1.03
2018-08-06T11:02:55.590Z,1.27
2018-08-06T11:05:58.020Z,1.10
2018-08-06T11:09:00.381Z,1.23
2018-08-06T11:12:02.625Z,1.10
2018-08-06T11:15:07.237Z,1.20
2018-08-06T11:18:09.516Z,1.40
2018-08-06T11:21:11.869Z,1.30
2018-08-06T11:24:14.111Z,1.20
2018-08-06T11:27:16.505Z,1.27
2018-08-06T11:30:19.922Z,1.40
2018-08-06T11:33:44.334Z,1.00
2018-08-06T11:36:46.608Z,1.20
2018-08-06T11:39:48.871Z,1.20
2018-08-06T11:42:51.106Z,1.37
2018-08-06T11:45:53.367Z,1.30
2018-08-06T11:48:55.711Z,1.30
2018-08-06T11:51:59.011Z,1.23
2018-08-06T11:55:01.232Z,1.50
2018-08-06T11:58:03.646Z,1.07
2018-08-06T12:01:06.460Z,1.20
2018-08-06T12:04:08.709Z,1.40
2018-08-06T12:07:11.028Z,1.27
2018-08-06T12:10:14.893Z,1.13
2018-08-06T12:13:17.128Z,1.30
2018-08-06T12:16:19.477Z,1.37
2018-08-06T12:19:21.739Z,1.60
2018-08-06T12:22:24.113Z,1.70
2018-08-06T12:25:26.457Z,1.80
2018-08-06T12:28:28.866Z,1.77
2018-08-06T12:31:31.273Z,1.87
2018-08-06T12:34:33.569Z,1.93
2018-08-06T12:37:35.862Z,2.07
2018-08-06T12:40:38.124Z,1.80
2018-08-06T12:43:40.452Z,1.33
2018-08-06T12:46:42.803Z,1.87
2018-08-06T12:49:45.096Z,1.90
2018-08-06T12:52:47.452Z,1.83
2018-08-06T12:55:49.812Z,1.90
2018-08-06T12:58:52.138Z,2.00
2018-08-06T13:01:54.532Z,1.77
2018-08-06T13:04:56.829Z,1.80
2018-08-06T13:07:59.296Z,1.77
2018-08-06T13:11:01.653Z,1.73
2018-08-06T13:14:04.103Z,1.80
2018-08-06T13:17:06.447Z,2.37
2018-08-06T13:20:08.976Z,2.40
2018-08-06T13:23:11.321Z,2.50
2018-08-06T13:26:13.606Z,2.40
2018-08-06T13:29:15.902Z,2.20
2018-08-06T13:32:18.178Z,2.40
2018-08-06T13:35:20.379Z,2.23
2018-08-06T13:38:22.779Z,2.00
2018-08-06T13:41:25.104Z,2.70
2018-08-06T13:44:27.416Z,2.93
2018-08-06T13:47:29.839Z,2.90
2018-08-06T13:50:32.121Z,2.70
2018-08-06T13:53:35.454Z,2.30
2018-08-06T13:56:37.825Z,2.80
2018-08-06T13:59:40.336Z,2.80
2018-08-06T14:02:42.581Z,2.83
2018-08-06T14:05:44.924Z,2.50
2018-08-06T14:08:47.349Z,2.63
2018-08-06T14:11:49.750Z,2.43
2018-08-06T14:14:52.091Z,2.47
2018-08-06T14:17:54.401Z,2.67
2018-08-06T14:20:56.748Z,2.50
2018-08-06T14:23:59.005Z,2.30
2018-08-06T14:27:01.530Z,2.42
2018-08-06T14:30:05.758Z,2.20
2018-08-06T14:33:08.036Z,2.25
2018-08-06T14:36:10.308Z,2.98
2018-08-06T14:39:12.808Z,2.80
2018-08-06T14:42:15.222Z,2.33
2018-08-06T14:45:17.556Z,2.10
2018-08-06T14:48:20.013Z,13.17
2018-08-06T14:51:22.232Z,28.43
2018-08-06T14:54:24.604Z,2.70
2018-08-06T14:57:26.967Z,6.83
2018-08-06T15:00:30.216Z,2.60
2018-08-06T15:03:32.510Z,2.43
2018-08-06T15:06:34.935Z,2.60
2018-08-06T15:09:37.245Z,2.50
2018-08-06T15:12:39.668Z,7.10
2018-08-06T15:15:42.036Z,2.27
2018-08-06T15:18:44.356Z,2.20
2018-08-06T15:21:46.564Z,2.15
2018-08-06T15:24:48.923Z,3.13
2018-08-06T15:27:52.324Z,2.77
2018-08-06T15:30:54.589Z,2.80
2018-08-06T15:33:56.920Z,3.13
2018-08-06T15:36:59.407Z,3.07
2018-08-06T15:40:01.852Z,2.37
2018-08-06T15:43:04.300Z,2.40
2018-08-06T15:46:06.569Z,2.57
2018-08-06T15:49:08.914Z,2.60
2018-08-06T15:52:11.263Z,2.50
2018-08-06T15:55:13.665Z,2.27
2018-08-06T15:58:16.017Z,2.10
2018-08-06T16:01:18.308Z,2.00
2018-08-06T16:04:20.657Z,2.20
2018-08-06T16:07:22.981Z,2.50
2018-08-06T16:10:25.248Z,2.77
2018-08-06T16:13:27.610Z,2.47
2018-08-06T16:16:29.832Z,2.23
2018-08-06T16:19:32.169Z,2.33
2018-08-06T16:22:34.394Z,2.27
2018-08-06T16:25:36.679Z,1.90
2018-08-06T16:28:39.000Z,2.20
2018-08-06T16:31:41.361Z,2.30
2018-08-06T16:34:43.806Z,1.70
2018-08-06T16:37:46.373Z,2.00
2018-08-06T16:40:48.690Z,2.40
2018-08-06T16:43:51.500Z,1.77
2018-08-06T16:46:53.992Z,2.20
2018-08-06T16:49:56.223Z,2.22
2018-08-06T16:52:58.477Z,1.65
2018-08-06T16:56:00.727Z,2.10
2018-08-06T16:59:03.164Z,2.02
2018-08-06T17:02:05.459Z,2.10
2018-08-06T17:05:09.335Z,1.95
2018-08-06T17:08:11.704Z,1.87
2018-08-06T17:11:13.936Z,1.92
2018-08-06T17:14:17.484Z,1.70
2018-08-06T17:17:19.947Z,2.10
2018-08-06T17:20:22.854Z,2.20
2018-08-06T17:23:25.148Z,2.15
2018-08-06T17:26:54.755Z,2.33
2018-08-06T17:29:57.022Z,2.47
2018-08-06T17:32:59.357Z,2.10
2018-08-06T17:36:01.616Z,2.10
2018-08-06T17:39:07.757Z,2.03
2018-08-06T17:42:10.113Z,2.40
2018-08-06T17:45:15.775Z,2.63
2018-08-06T17:48:18.017Z,2.47
2018-08-06T17:51:20.380Z,2.90
2018-08-06T17:54:22.747Z,2.70
2018-08-06T17:57:24.984Z,2.67
2018-08-06T18:00:27.272Z,2.77
2018-08-06T18:03:29.496Z,2.67
2018-08-06T18:06:31.880Z,2.83
2018-08-06T18:09:34.189Z,3.00
2018-08-06T18:12:36.453Z,3.10
2018-08-06T18:15:38.780Z,3.40
2018-08-06T18:18:41.086Z,5.47
2018-08-06T18:21:43.348Z,4.10
2018-08-06T18:24:45.638Z,4.17
2018-08-06T18:27:48.761Z,3.57
2018-08-06T18:30:50.999Z,2.87
2018-08-06T18:33:53.209Z,3.17
2018-08-06T18:36:55.512Z,3.00
2018-08-06T18:39:57.846Z,2.80
2018-08-06T18:43:00.076Z,2.60
2018-08-06T18:46:02.415Z,2.83
2018-08-06T18:49:05.304Z,2.87
2018-08-06T18:52:07.698Z,2.63
2018-08-06T18:55:11.199Z,3.17
2018-08-06T18:58:13.533Z,3.20
2018-08-06T19:01:15.892Z,3.57
2018-08-06T19:04:18.159Z,3.63
2018-08-06T19:07:20.528Z,3.27
2018-08-06T19:10:23.901Z,3.60
2018-08-06T19:13:31.875Z,3.60
2018-08-06T19:16:34.218Z,4.03
2018-08-06T19:19:36.533Z,3.67
2018-08-06T19:22:38.920Z,4.00
2018-08-06T19:25:41.293Z,3.80
2018-08-06T19:28:43.608Z,3.57
2018-08-06T19:31:45.973Z,3.30
2018-08-06T19:34:48.304Z,3.93
2018-08-06T19:37:51.367Z,3.97
2018-08-06T19:40:53.682Z,3.90
2018-08-06T19:43:56.021Z,4.50
2018-08-06T19:46:58.377Z,4.57
2018-08-06T19:50:06.377Z,4.43
2018-08-06T19:53:08.694Z,4.37
2018-08-06T19:56:13.048Z,4.20
2018-08-06T19:59:15.424Z,3.87
2018-08-06T20:02:17.788Z,4.40
2018-08-06T20:05:20.156Z,4.50
2018-08-06T20:08:24.931Z,3.63
2018-08-06T20:11:30.827Z,4.20
2018-08-06T20:14:33.202Z,4.07
2018-08-06T20:17:35.552Z,4.30
2018-08-06T20:20:37.934Z,3.87
2018-08-06T20:23:40.292Z,4.20
2018-08-06T20:26:42.598Z,4.17
2018-08-06T20:29:44.981Z,4.60
2018-08-06T20:32:47.633Z,4.13
2018-08-06T20:35:50.036Z,4.70
2018-08-06T20:38:52.526Z,4.07
2018-08-06T20:41:54.833Z,3.73
2018-08-06T20:44:57.208Z,3.77
2018-08-06T20:47:59.525Z,3.43
2018-08-06T20:51:01.821Z,3.90
2018-08-06T20:54:04.162Z,3.93
2018-08-06T20:57:06.511Z,4.20
2018-08-06T21:00:11.268Z,3.70
2018-08-06T21:03:13.637Z,3.93
2018-08-06T21:06:15.916Z,3.97
2018-08-06T21:11:58.713Z,3.40
2018-08-06T21:15:01.044Z,3.60
2018-08-06T21:18:03.433Z,3.73
2018-08-06T21:21:05.758Z,3.40
2018-08-06T21:24:08.101Z,3.73
2018-08-06T21:27:10.376Z,3.17
2018-08-06T21:30:15.446Z,3.60
2018-08-06T21:33:17.763Z,3.67
2018-08-06T21:36:20.121Z,4.00
2018-08-06T21:39:22.488Z,3.67
2018-08-06T21:42:24.851Z,4.07
2018-08-06T21:45:27.220Z,3.90
2018-08-06T21:48:29.452Z,3.83
2018-08-06T21:51:31.845Z,3.80
2018-08-06T21:54:34.094Z,3.83
2018-08-06T21:57:36.360Z,3.80
2018-08-06T22:00:39.771Z,3.83
2018-08-06T22:03:42.096Z,3.83
2018-08-06T22:06:44.459Z,3.53
2018-08-06T22:09:47.779Z,3.87
2018-08-06T22:12:50.101Z,4.10
2018-08-06T22:15:52.375Z,4.00
2018-08-06T22:18:54.643Z,3.73
2018-08-06T22:21:56.939Z,3.73
2018-08-06T22:24:59.183Z,4.27
2018-08-06T22:28:01.474Z,3.70
2018-08-06T22:31:03.805Z,4.13
2018-08-06T22:34:06.074Z,4.03
2018-08-06T22:37:08.378Z,4.67
2018-08-06T22:40:11.858Z,3.90
2018-08-06T22:43:14.185Z,4.10
2018-08-06T22:46:16.544Z,3.80
2018-08-06T22:49:18.891Z,4.17
2018-08-06T22:52:21.103Z,4.03
2018-08-06T22:55:23.398Z,4.07
2018-08-06T22:58:25.685Z,4.03
2018-08-06T23:01:27.883Z,4.60
2018-08-06T23:04:30.143Z,3.90
2018-08-06T23:07:32.435Z,4.07
2018-08-06T23:10:34.717Z,4.50
2018-08-06T23:13:37.020Z,4.00
2018-08-06T23:16:39.361Z,4.30
2018-08-06T23:19:41.606Z,4.37
2018-08-06T23:22:43.904Z,4.17
2018-08-06T23:25:46.178Z,4.53
2018-08-06T23:28:48.463Z,4.50
2018-08-06T23:31:50.821Z,4.50
2018-08-06T23:34:54.141Z,4.63
2018-08-06T23:37:56.425Z,4.90
2018-08-06T23:40:58.719Z,5.30
2018-08-06T23:44:00.982Z,5.13
2018-08-06T23:47:03.361Z,4.60
2018-08-06T23:50:07.205Z,5.23
2018-08-06T23:53:09.567Z,5.20
2018-08-06T23:56:11.857Z,4.63
2018-08-06T23:59:14.177Z,5.10
